createdAt,value
2019-03-03T00:00:56.213Z,94.70
2019-03-03T00:03:25.635Z,94.80
2019-03-03T00:05:55.158Z,94.80
2019-03-03T00:08:24.809Z,94.80
2019-03-03T00:10:54.385Z,94.60
2019-03-03T00:13:23.885Z,94.60
2019-03-03T00:15:53.534Z,94.60
2019-03-03T00:18:23.287Z,94.60
2019-03-03T00:20:53.133Z,94.60
2019-03-03T00:23:22.657Z,94.60
2019-03-03T00:25:52.115Z,94.30
2019-03-03T00:28:21.773Z,94.80
2019-03-03T00:30:51.438Z,94.40
2019-03-03T00:33:20.985Z,94.80
2019-03-03T00:35:51.511Z,94.30
2019-03-03T00:38:25.316Z,94.70
2019-03-03T00:40:59.403Z,94.20
2019-03-03T00:43:30.595Z,94.30
2019-03-03T00:46:13.883Z,94.70
2019-03-03T00:48:45.063Z,94.60
2019-03-03T00:51:27.937Z,94.50
2019-03-03T00:54:15.097Z,94.40
2019-03-03T00:57:03.993Z,94.30
2019-03-03T00:59:35.129Z,94.20
2019-03-03T01:04:56.245Z,94.00
2019-03-03T01:07:27.527Z,94.10
2019-03-03T01:10:03.059Z,94.30
2019-03-03T01:12:42.375Z,94.20
2019-03-03T01:15:16.375Z,94.30
2019-03-03T01:17:50.636Z,94.30
2019-03-03T01:20:21.837Z,94.40
2019-03-03T01:22:52.993Z,94.40
2019-03-03T01:25:28.553Z,94.40
2019-03-03T01:28:03.533Z,94.10
2019-03-03T01:30:33.133Z,94.40
2019-03-03T01:33:02.563Z,94.30
2019-03-03T01:38:07.481Z,94.10
2019-03-03T01:40:36.885Z,94.20
2019-03-03T01:43:06.349Z,94.00
2019-03-03T01:45:37.529Z,93.90
2019-03-03T01:48:07.072Z,94.10
2019-03-03T01:50:36.553Z,94.30
2019-03-03T01:53:05.988Z,94.20
2019-03-03T01:55:35.515Z,94.10
2019-03-03T01:58:05.025Z,94.10
2019-03-03T02:00:34.595Z,94.10
2019-03-03T02:03:04.435Z,94.20
2019-03-03T02:05:33.961Z,94.30
2019-03-03T02:08:03.568Z,94.30
2019-03-03T02:10:36.393Z,94.20
2019-03-03T02:13:07.499Z,94.20
2019-03-03T02:15:37.079Z,94.20
2019-03-03T02:18:11.929Z,94.20
2019-03-03T02:20:46.960Z,94.10
2019-03-03T02:23:35.057Z,94.10
2019-03-03T02:26:04.748Z,94.20
2019-03-03T02:28:35.395Z,94.20
2019-03-03T02:31:05.014Z,94.10
2019-03-03T02:33:34.443Z,94.20
2019-03-03T02:36:03.976Z,94.20
2019-03-03T02:38:33.478Z,94.20
2019-03-03T02:41:03.025Z,94.20
2019-03-03T02:43:35.532Z,94.30
2019-03-03T02:46:05.097Z,94.20
2019-03-03T02:48:34.659Z,94.20
2019-03-03T02:51:04.500Z,94.30
2019-03-03T02:53:34.070Z,94.20
2019-03-03T02:56:03.609Z,94.10
2019-03-03T02:58:33.120Z,94.30
2019-03-03T03:01:06.189Z,94.30
2019-03-03T03:03:35.670Z,94.40
2019-03-03T03:06:15.659Z,94.40
2019-03-03T03:08:46.794Z,94.40
2019-03-03T03:11:23.746Z,94.30
2019-03-03T03:14:07.042Z,94.40
2019-03-03T03:16:40.888Z,94.40
2019-03-03T03:19:16.606Z,94.50
2019-03-03T03:24:55.282Z,94.50
2019-03-03T03:27:35.483Z,94.60
2019-03-03T03:30:15.600Z,94.50
2019-03-03T03:32:48.078Z,94.50
2019-03-03T03:35:20.825Z,94.50
2019-03-03T03:37:59.665Z,94.50
2019-03-03T03:40:35.104Z,94.50
2019-03-03T03:43:21.092Z,94.50
2019-03-03T03:46:04.023Z,94.70
2019-03-03T03:48:40.967Z,94.60
2019-03-03T03:51:30.876Z,94.70
2019-03-03T03:54:10.277Z,94.70
2019-03-03T03:56:43.264Z,94.70
2019-03-03T03:59:17.238Z,94.60
2019-03-03T04:01:59.207Z,94.70
2019-03-03T04:04:39.178Z,94.70
2019-03-03T04:07:10.388Z,94.70
2019-03-03T04:09:46.987Z,94.60
2019-03-03T04:12:35.782Z,95.00
2019-03-03T04:15:11.269Z,94.70
2019-03-03T04:17:57.471Z,94.70
2019-03-03T04:20:46.375Z,94.60
2019-03-03T04:26:07.327Z,94.70
2019-03-03T04:28:47.557Z,94.70
2019-03-03T04:31:21.449Z,94.80
2019-03-03T04:33:54.219Z,94.80
2019-03-03T04:36:37.499Z,94.80
2019-03-03T04:39:29.751Z,94.90
2019-03-03T04:42:06.288Z,94.90
2019-03-03T04:44:40.163Z,94.90
2019-03-03T04:47:17.327Z,94.90
2019-03-03T04:49:48.379Z,95.00
2019-03-03T04:52:28.397Z,95.00
2019-03-03T04:55:17.605Z,95.10
2019-03-03T04:58:03.734Z,95.20
2019-03-03T05:00:50.837Z,95.20
2019-03-03T05:03:22.036Z,95.20
2019-03-03T05:06:02.186Z,95.20
2019-03-03T05:08:36.053Z,95.20
2019-03-03T05:11:07.244Z,95.20
2019-03-03T05:13:56.486Z,95.30
2019-03-03T05:16:30.619Z,95.30
2019-03-03T05:19:01.734Z,95.20
2019-03-03T05:21:31.405Z,95.30
2019-03-03T05:24:00.915Z,95.30
2019-03-03T05:26:30.342Z,95.20
2019-03-03T05:28:59.952Z,95.30
2019-03-03T05:31:29.497Z,95.30
2019-03-03T05:33:58.958Z,95.30
2019-03-03T05:36:28.410Z,95.30
2019-03-03T05:38:57.886Z,95.30
2019-03-03T05:41:27.439Z,95.30
2019-03-03T05:43:56.970Z,95.30
2019-03-03T05:46:26.432Z,95.40
2019-03-03T05:48:55.960Z,95.50
2019-03-03T05:51:25.463Z,95.50
2019-03-03T05:53:54.885Z,95.50
2019-03-03T05:56:24.468Z,95.50
2019-03-03T05:58:54.150Z,95.50
2019-03-03T06:01:23.554Z,95.50
2019-03-03T06:03:53.072Z,95.60
2019-03-03T06:06:22.586Z,95.50
2019-03-03T06:08:52.096Z,95.70
2019-03-03T06:11:22.213Z,95.60
2019-03-03T06:13:51.752Z,95.80
2019-03-03T06:16:21.372Z,95.80
2019-03-03T06:18:50.865Z,95.80
2019-03-03T06:21:20.272Z,95.70
2019-03-03T06:23:49.692Z,95.80
2019-03-03T06:26:19.173Z,95.90
2019-03-03T06:28:48.562Z,95.90
2019-03-03T06:31:17.983Z,96.00
2019-03-03T06:33:47.467Z,96.00
2019-03-03T06:36:16.885Z,95.90
2019-03-03T06:38:46.402Z,95.90
2019-03-03T06:41:15.990Z,95.90
2019-03-03T06:43:45.502Z,95.90
2019-03-03T06:46:15.078Z,96.00
2019-03-03T06:48:44.536Z,96.30
2019-03-03T06:51:14.170Z,96.20
2019-03-03T06:53:43.674Z,96.30
2019-03-03T06:56:13.306Z,96.30
2019-03-03T06:58:42.739Z,96.30
2019-03-03T07:01:12.198Z,96.30
2019-03-03T07:03:41.651Z,96.40
2019-03-03T07:06:11.298Z,96.60
2019-03-03T07:08:40.770Z,96.50
2019-03-03T07:11:10.259Z,96.30
2019-03-03T07:13:39.780Z,96.50
2019-03-03T07:16:09.196Z,96.40
2019-03-03T07:18:38.633Z,96.30
2019-03-03T07:21:08.084Z,96.40
2019-03-03T07:23:37.591Z,96.40
2019-03-03T07:26:07.061Z,96.50
2019-03-03T07:28:36.604Z,96.50
2019-03-03T07:31:06.092Z,96.60
2019-03-03T07:33:35.632Z,97.00
2019-03-03T07:36:05.190Z,96.90
2019-03-03T07:38:34.707Z,97.40
2019-03-03T07:41:04.208Z,97.10
2019-03-03T07:43:33.724Z,96.90
2019-03-03T07:46:03.610Z,97.10
2019-03-03T07:48:33.154Z,96.90
2019-03-03T07:51:02.704Z,97.60
2019-03-03T07:53:32.210Z,97.20
2019-03-03T07:56:01.744Z,97.30
2019-03-03T07:58:31.327Z,97.30
2019-03-03T08:01:01.410Z,97.20
2019-03-03T08:03:31.028Z,97.20
2019-03-03T08:06:00.580Z,97.20
2019-03-03T08:08:30.146Z,97.20
2019-03-03T08:10:59.774Z,97.30
2019-03-03T08:13:29.364Z,97.30
2019-03-03T08:15:58.890Z,97.30
2019-03-03T08:18:28.478Z,97.50
2019-03-03T08:20:57.946Z,97.80
2019-03-03T08:23:27.532Z,98.10
2019-03-03T08:25:57.027Z,97.70
2019-03-03T08:28:26.526Z,97.50
2019-03-03T08:30:56.082Z,97.50
2019-03-03T08:33:25.606Z,97.80
2019-03-03T08:35:55.075Z,97.70
2019-03-03T08:38:24.644Z,97.70
2019-03-03T08:40:54.150Z,97.60
2019-03-03T08:43:27.650Z,97.70
2019-03-03T08:46:01.420Z,97.80
2019-03-03T08:48:35.650Z,97.80
2019-03-03T08:51:06.850Z,97.80
2019-03-03T08:53:40.976Z,98.30
2019-03-03T08:56:14.979Z,98.00
2019-03-03T08:58:51.898Z,98.10
2019-03-03T09:04:25.038Z,98.10
2019-03-03T09:06:59.187Z,98.10
2019-03-03T09:09:41.789Z,98.00
2019-03-03T09:12:27.748Z,98.10
2019-03-03T09:15:04.314Z,98.10
2019-03-03T09:17:38.260Z,98.20
2019-03-03T09:20:29.267Z,98.60
2019-03-03T09:23:00.398Z,98.50
2019-03-03T09:25:46.433Z,98.70
2019-03-03T09:28:29.637Z,98.40
2019-03-03T09:31:03.694Z,98.30
2019-03-03T09:33:50.916Z,98.20
2019-03-03T09:36:31.138Z,98.20
2019-03-03T09:39:08.074Z,98.20
2019-03-03T09:41:51.128Z,98.10
2019-03-03T09:44:22.322Z,98.50
2019-03-03T09:47:05.198Z,98.60
2019-03-03T09:49:48.042Z,98.60
2019-03-03T09:52:19.279Z,98.30
2019-03-03T09:55:02.523Z,98.50
2019-03-03T09:57:45.904Z,98.80
2019-03-03T10:00:22.878Z,98.40
2019-03-03T10:02:54.018Z,98.30
2019-03-03T10:05:28.038Z,98.40
2019-03-03T10:07:59.243Z,98.30
2019-03-03T10:10:30.498Z,98.40
2019-03-03T10:13:01.824Z,98.40
2019-03-03T10:15:48.101Z,98.40
2019-03-03T10:18:22.316Z,98.50
2019-03-03T10:20:53.468Z,98.60
2019-03-03T10:23:27.836Z,98.50
2019-03-03T10:26:01.684Z,98.40
2019-03-03T10:28:49.060Z,98.50
2019-03-03T10:31:26.035Z,98.60
2019-03-03T10:34:03.273Z,98.40
2019-03-03T10:36:43.568Z,98.50
2019-03-03T10:39:17.726Z,98.50
2019-03-03T10:41:48.882Z,98.60
2019-03-03T10:44:22.706Z,98.60
2019-03-03T10:47:11.785Z,98.80
2019-03-03T10:49:58.032Z,98.70
2019-03-03T10:52:31.874Z,98.50
2019-03-03T10:55:11.929Z,98.60
2019-03-03T10:57:43.183Z,98.60
2019-03-03T11:00:34.551Z,98.50
2019-03-03T11:03:06.009Z,98.60
2019-03-03T11:05:37.342Z,98.60
2019-03-03T11:08:17.637Z,98.50
2019-03-03T11:10:57.368Z,98.50
2019-03-03T11:13:33.749Z,98.60
2019-03-03T11:16:21.256Z,98.60
2019-03-03T11:19:01.072Z,98.40
2019-03-03T11:21:48.489Z,98.40
2019-03-03T11:24:35.551Z,98.40
2019-03-03T11:27:09.448Z,98.40
2019-03-03T11:29:43.613Z,98.40
2019-03-03T11:32:29.922Z,98.30
2019-03-03T11:35:04.323Z,98.40
2019-03-03T11:37:35.554Z,98.40
2019-03-03T11:40:15.010Z,98.40
2019-03-03T11:42:57.682Z,98.30
2019-03-03T11:45:28.846Z,98.40
2019-03-03T11:48:04.237Z,98.40
2019-03-03T11:50:35.396Z,98.40
2019-03-03T11:53:09.054Z,98.30
2019-03-03T11:55:40.256Z,98.40
2019-03-03T11:58:14.411Z,98.50
2019-03-03T12:00:48.702Z,98.40
2019-03-03T12:03:19.850Z,98.40
2019-03-03T12:05:50.991Z,98.50
2019-03-03T12:08:34.057Z,98.40
2019-03-03T12:11:05.141Z,98.30
2019-03-03T12:13:38.993Z,98.40
2019-03-03T12:16:12.968Z,98.30
2019-03-03T12:18:49.815Z,98.30
2019-03-03T12:21:20.995Z,98.30
2019-03-03T12:23:52.266Z,98.30
2019-03-03T12:26:32.306Z,98.00
2019-03-03T12:29:12.478Z,98.10
2019-03-03T12:31:46.322Z,98.00
2019-03-03T12:34:20.194Z,98.00
2019-03-03T12:36:57.379Z,98.10
2019-03-03T12:39:28.524Z,97.90
2019-03-03T12:42:14.679Z,98.10
2019-03-03T12:44:51.579Z,98.10
2019-03-03T12:47:25.629Z,98.00
2019-03-03T12:49:56.979Z,98.10
2019-03-03T12:52:37.194Z,98.00
2019-03-03T12:55:24.081Z,97.90
2019-03-03T12:57:55.167Z,97.80
2019-03-03T13:00:26.309Z,97.70
2019-03-03T13:03:09.345Z,98.00
2019-03-03T13:05:49.898Z,97.80
2019-03-03T13:08:21.018Z,97.80
2019-03-03T13:10:55.192Z,97.90
2019-03-03T13:13:38.047Z,97.70
2019-03-03T13:16:09.215Z,97.70
2019-03-03T13:18:40.345Z,97.80
2019-03-03T13:21:14.395Z,97.30
2019-03-03T13:23:48.367Z,97.70
2019-03-03T13:26:22.211Z,97.60
2019-03-03T13:28:55.121Z,97.60
2019-03-03T13:31:42.292Z,97.70
2019-03-03T13:34:13.677Z,97.50
2019-03-03T13:36:51.011Z,97.50
2019-03-03T13:39:28.040Z,97.70
2019-03-03T13:41:59.369Z,97.50
2019-03-03T13:44:28.920Z,97.60
2019-03-03T13:46:58.447Z,96.90
2019-03-03T13:49:28.045Z,97.30
2019-03-03T13:51:57.502Z,97.60
2019-03-03T13:54:27.060Z,97.30
2019-03-03T13:56:56.495Z,97.00
2019-03-03T13:59:26.049Z,97.30
2019-03-03T14:01:55.539Z,97.00
2019-03-03T14:04:25.189Z,97.00
2019-03-03T14:06:55.012Z,96.90
2019-03-03T14:09:24.610Z,97.00
2019-03-03T14:11:55.087Z,96.70
2019-03-03T14:14:26.289Z,97.20
2019-03-03T14:16:55.683Z,96.40
2019-03-03T14:19:26.869Z,96.60
2019-03-03T14:21:56.381Z,96.50
2019-03-03T14:24:25.910Z,97.00
2019-03-03T14:26:55.416Z,96.80
2019-03-03T14:29:24.979Z,96.90
2019-03-03T14:31:54.353Z,96.80
2019-03-03T14:34:23.863Z,96.70
2019-03-03T14:36:53.307Z,96.60
2019-03-03T14:39:22.799Z,96.30
2019-03-03T14:41:52.316Z,96.20
2019-03-03T14:44:21.820Z,96.30
2019-03-03T14:46:51.378Z,96.60
2019-03-03T14:49:20.911Z,96.60
2019-03-03T14:51:50.568Z,96.30
2019-03-03T14:54:20.015Z,96.30
2019-03-03T14:56:49.648Z,96.40
2019-03-03T14:59:19.074Z,96.10
2019-03-03T15:01:48.554Z,96.10
2019-03-03T15:04:18.171Z,96.50
2019-03-03T15:06:47.743Z,96.40
2019-03-03T15:09:19.192Z,96.30
2019-03-03T15:11:48.843Z,96.30
2019-03-03T15:14:18.435Z,96.60
2019-03-03T15:16:47.893Z,95.60
2019-03-03T15:19:17.399Z,95.80
2019-03-03T15:21:46.949Z,95.80
2019-03-03T15:24:16.628Z,95.60
2019-03-03T15:26:46.255Z,96.10
2019-03-03T15:29:15.808Z,96.50
2019-03-03T15:31:45.237Z,96.60
2019-03-03T15:34:14.773Z,96.20
2019-03-03T15:36:44.386Z,95.80
2019-03-03T15:39:13.961Z,95.60
2019-03-03T15:41:43.487Z,96.10
2019-03-03T15:44:13.034Z,96.40
2019-03-03T15:46:42.574Z,96.20
2019-03-03T15:49:12.095Z,95.90
2019-03-03T15:51:41.692Z,96.20
2019-03-03T15:54:11.209Z,95.50
2019-03-03T15:56:40.648Z,95.80
2019-03-03T15:59:10.199Z,95.80
2019-03-03T16:01:39.808Z,95.90
2019-03-03T16:04:09.331Z,95.80
2019-03-03T16:06:38.833Z,95.80
2019-03-03T16:09:10.195Z,95.60
2019-03-03T16:11:39.824Z,95.90
2019-03-03T16:14:09.455Z,95.60
2019-03-03T16:16:39.012Z,95.80
2019-03-03T16:19:08.676Z,95.60
2019-03-03T16:21:38.214Z,95.60
2019-03-03T16:24:08.587Z,95.50
2019-03-03T16:26:38.253Z,95.60
2019-03-03T16:29:07.796Z,95.40
2019-03-03T16:31:37.234Z,95.60
2019-03-03T16:34:06.711Z,95.90
2019-03-03T16:36:36.147Z,95.60
2019-03-03T16:39:06.776Z,95.60
2019-03-03T16:41:36.232Z,95.70
2019-03-03T16:44:05.808Z,95.40
2019-03-03T16:46:35.472Z,95.90
2019-03-03T16:49:04.971Z,95.70
2019-03-03T16:51:34.603Z,95.70
2019-03-03T16:54:04.104Z,95.80
2019-03-03T16:56:33.562Z,95.50
2019-03-03T16:59:03.158Z,95.20
2019-03-03T17:01:32.650Z,95.00
2019-03-03T17:04:02.119Z,95.60
2019-03-03T17:06:31.599Z,95.70
2019-03-03T17:09:01.070Z,95.00
2019-03-03T17:11:30.606Z,95.20
2019-03-03T17:14:00.054Z,95.30
2019-03-03T17:16:29.567Z,95.20
2019-03-03T17:18:59.210Z,95.30
2019-03-03T17:21:28.743Z,95.50
2019-03-03T17:23:58.231Z,95.50
2019-03-03T17:26:27.696Z,95.30
2019-03-03T17:28:57.226Z,95.00
2019-03-03T17:31:26.678Z,95.60
2019-03-03T17:33:56.144Z,95.30
2019-03-03T17:36:25.637Z,95.60
2019-03-03T17:38:55.260Z,95.00
2019-03-03T17:41:24.763Z,94.90
2019-03-03T17:43:54.289Z,95.10
2019-03-03T17:46:24.287Z,95.20
2019-03-03T17:48:53.789Z,94.90
2019-03-03T17:51:23.326Z,95.30
2019-03-03T17:53:52.822Z,95.60
2019-03-03T17:56:22.251Z,95.60
2019-03-03T17:58:51.848Z,95.00
2019-03-03T18:01:21.268Z,95.50
2019-03-03T18:03:50.924Z,95.60
2019-03-03T18:06:20.410Z,95.50
2019-03-03T18:08:49.953Z,95.50
2019-03-03T18:11:19.436Z,95.50
2019-03-03T18:13:48.946Z,95.40
2019-03-03T18:16:18.472Z,95.60
2019-03-03T18:18:48.068Z,95.50
2019-03-03T18:21:17.600Z,95.50
2019-03-03T18:23:47.091Z,95.60
2019-03-03T18:26:16.633Z,95.80
2019-03-03T18:28:46.080Z,95.80
2019-03-03T18:31:15.622Z,95.80
2019-03-03T18:33:45.254Z,95.80
2019-03-03T18:36:14.765Z,95.80
2019-03-03T18:38:44.704Z,95.70
2019-03-03T18:41:14.148Z,95.80
2019-03-03T18:43:43.822Z,95.80
2019-03-03T18:46:13.389Z,95.50
2019-03-03T18:48:42.994Z,95.60
2019-03-03T18:51:12.452Z,95.80
2019-03-03T18:53:42.034Z,95.80
2019-03-03T18:56:11.658Z,95.80
2019-03-03T18:58:41.060Z,95.70
2019-03-03T19:01:10.600Z,95.70
2019-03-03T19:03:40.955Z,95.90
2019-03-03T19:06:10.432Z,96.00
2019-03-03T19:08:41.656Z,95.70
2019-03-03T19:11:11.163Z,95.80
2019-03-03T19:13:40.640Z,95.70
2019-03-03T19:16:10.181Z,95.60
2019-03-03T19:18:39.694Z,95.90
2019-03-03T19:21:09.216Z,95.60
2019-03-03T19:23:38.786Z,95.90
2019-03-03T19:26:08.314Z,96.00
2019-03-03T19:28:37.838Z,96.00
2019-03-03T19:31:07.492Z,95.80
2019-03-03T19:33:40.174Z,96.00
2019-03-03T19:36:09.666Z,95.90
2019-03-03T19:38:39.242Z,95.80
2019-03-03T19:41:08.728Z,95.70
2019-03-03T19:43:38.198Z,95.80
2019-03-03T19:46:10.275Z,95.90
2019-03-03T19:48:39.846Z,95.90
2019-03-03T19:51:09.448Z,95.80
2019-03-03T19:53:38.948Z,95.80
2019-03-03T19:56:08.351Z,95.70
2019-03-03T19:58:37.892Z,95.50
2019-03-03T20:01:07.602Z,95.80
2019-03-03T20:03:37.174Z,95.70
2019-03-03T20:06:06.797Z,95.60
2019-03-03T20:08:36.322Z,95.80
2019-03-03T20:11:05.882Z,95.60
2019-03-03T20:13:35.349Z,96.10
2019-03-03T20:16:05.638Z,95.80
2019-03-03T20:18:35.061Z,95.50
2019-03-03T20:21:04.644Z,95.80
2019-03-03T20:23:34.114Z,95.60
2019-03-03T20:26:05.138Z,95.80
2019-03-03T20:28:36.262Z,95.60
2019-03-03T20:31:06.136Z,95.60
2019-03-03T20:33:35.702Z,95.50
2019-03-03T20:36:05.529Z,95.80
2019-03-03T20:38:35.122Z,95.70
2019-03-03T20:41:04.594Z,95.90
2019-03-03T20:43:34.000Z,95.60
2019-03-03T20:46:03.567Z,95.50
2019-03-03T20:48:33.367Z,95.70
2019-03-03T20:51:02.884Z,95.50
2019-03-03T20:53:32.287Z,95.50
2019-03-03T20:56:01.752Z,95.30
2019-03-03T20:58:31.412Z,95.50
2019-03-03T21:01:00.972Z,95.40
2019-03-03T21:03:30.486Z,95.30
2019-03-03T21:05:59.964Z,95.30
2019-03-03T21:08:29.472Z,95.50
2019-03-03T21:10:58.982Z,95.50
2019-03-03T21:13:28.464Z,95.30
2019-03-03T21:15:58.085Z,95.60
2019-03-03T21:18:27.742Z,95.20
2019-03-03T21:20:57.254Z,95.20
2019-03-03T21:23:26.788Z,95.30
2019-03-03T21:25:56.273Z,95.40
2019-03-03T21:28:25.700Z,95.40
2019-03-03T21:30:55.163Z,95.50
2019-03-03T21:33:24.650Z,95.30
2019-03-03T21:35:54.097Z,95.50
2019-03-03T21:38:23.613Z,95.10
2019-03-03T21:40:53.125Z,95.30
2019-03-03T21:43:22.654Z,95.40
2019-03-03T21:45:52.159Z,95.40
2019-03-03T21:48:21.833Z,95.60
2019-03-03T21:50:51.322Z,95.40
2019-03-03T21:53:20.716Z,95.30
2019-03-03T21:55:50.148Z,95.10
2019-03-03T21:58:19.687Z,95.30
2019-03-03T22:00:49.226Z,94.80
2019-03-03T22:03:18.660Z,94.70
2019-03-03T22:05:48.209Z,95.10
2019-03-03T22:08:17.640Z,95.10
2019-03-03T22:10:47.280Z,94.70
2019-03-03T22:13:16.840Z,95.00
2019-03-03T22:15:46.322Z,94.90
2019-03-03T22:18:15.823Z,94.80
2019-03-03T22:20:45.274Z,95.00
2019-03-03T22:23:14.798Z,95.10
2019-03-03T22:25:44.315Z,95.00
2019-03-03T22:28:13.740Z,94.90
2019-03-03T22:30:43.230Z,94.60
2019-03-03T22:33:12.680Z,95.00
2019-03-03T22:35:42.152Z,94.80
2019-03-03T22:38:11.623Z,94.90
2019-03-03T22:40:41.063Z,94.70
2019-03-03T22:43:10.650Z,94.70
2019-03-03T22:45:40.178Z,94.20
2019-03-03T22:48:09.618Z,94.60
2019-03-03T22:50:39.047Z,94.60
2019-03-03T22:53:08.473Z,94.80
2019-03-03T22:55:40.414Z,94.60
2019-03-03T22:58:09.480Z,94.40
2019-03-03T23:00:57.096Z,94.70
2019-03-03T23:03:38.661Z,94.70
2019-03-03T23:06:37.912Z,94.70
2019-03-03T23:14:56.944Z,94.40
2019-03-03T23:17:36.998Z,94.80
2019-03-03T23:20:16.511Z,94.50
2019-03-03T23:22:57.638Z,94.10
2019-03-03T23:25:51.520Z,94.30
2019-03-03T23:28:21.432Z,94.00
2019-03-03T23:30:51.123Z,94.20
2019-03-03T23:33:20.688Z,94.40
2019-03-03T23:35:50.382Z,94.50
2019-03-03T23:38:19.916Z,93.80
2019-03-03T23:40:49.356Z,93.90
2019-03-03T23:43:19.123Z,94.30
2019-03-03T23:45:55.992Z,93.90
2019-03-03T23:48:25.502Z,94.00
2019-03-03T23:50:55.053Z,93.80
2019-03-03T23:53:25.513Z,94.10
2019-03-03T23:56:05.195Z,93.80
2019-03-03T23:58:34.910Z,94.00
